sensor_id;sensor_type;location;lat;lon;timestamp;P1;durP1;ratioP1;P2;durP2;ratioP2
22449;SDS011;11392;57.390;-2.468;2023-01-19T00:00:51;1.55;;;0.95;;
22449;SDS011;11392;57.390;-2.468;2023-01-19T00:03:18;2.08;;;1.00;;
22449;SDS011;11392;57.390;-2.468;2023-01-19T00:05:45;1.10;;;0.70;;
22449;SDS011;11392;57.390;-2.468;2023-01-19T00:08:12;1.00;;;0.50;;
22449;SDS011;11392;57.390;-2.468;2023-01-19T00:10:44;1.83;;;0.50;;
22449;SDS011;11392;57.390;-2.468;2023-01-19T00:13:13;0.57;;;0.57;;
22449;SDS011;11392;57.390;-2.468;2023-01-19T00:15:41;0.77;;;0.63;;
22449;SDS011;11392;57.390;-2.468;2023-01-19T00:18:08;0.82;;;0.50;;
22449;SDS011;11392;57.390;-2.468;2023-01-19T00:20:36;1.80;;;0.70;;
22449;SDS011;11392;57.390;-2.468;2023-01-19T00:23:04;1.00;;;0.50;;
22449;SDS011;11392;57.390;-2.468;2023-01-19T00:25:33;1.30;;;0.90;;
22449;SDS011;11392;57.390;-2.468;2023-01-19T00:28:01;1.92;;;0.60;;
22449;SDS011;11392;57.390;-2.468;2023-01-19T00:30:28;1.38;;;0.80;;
22449;SDS011;11392;57.390;-2.468;2023-01-19T00:32:56;0.88;;;0.82;;
22449;SDS011;11392;57.390;-2.468;2023-01-19T00:35:24;2.22;;;0.82;;
22449;SDS011;11392;57.390;-2.468;2023-01-19T00:37:51;1.58;;;0.68;;
22449;SDS011;11392;57.390;-2.468;2023-01-19T00:40:18;1.60;;;0.82;;
22449;SDS011;11392;57.390;-2.468;2023-01-19T00:42:45;0.85;;;0.63;;
22449;SDS011;11392;57.390;-2.468;2023-01-19T00:47:44;2.05;;;0.68;;
22449;SDS011;11392;57.390;-2.468;2023-01-19T00:50:12;0.75;;;0.50;;
22449;SDS011;11392;57.390;-2.468;2023-01-19T00:52:42;1.52;;;0.60;;
22449;SDS011;11392;57.390;-2.468;2023-01-19T00:55:10;0.50;;;0.50;;
22449;SDS011;11392;57.390;-2.468;2023-01-19T00:57:39;1.35;;;0.90;;
22449;SDS011;11392;57.390;-2.468;2023-01-19T01:00:11;1.42;;;0.80;;
22449;SDS011;11392;57.390;-2.468;2023-01-19T01:02:40;0.80;;;0.80;;
22449;SDS011;11392;57.390;-2.468;2023-01-19T01:05:09;2.53;;;0.80;;
22449;SDS011;11392;57.390;-2.468;2023-01-19T01:07:37;1.60;;;0.70;;
22449;SDS011;11392;57.390;-2.468;2023-01-19T01:10:11;4.72;;;1.10;;
22449;SDS011;11392;57.390;-2.468;2023-01-19T01:12:38;1.08;;;0.77;;
22449;SDS011;11392;57.390;-2.468;2023-01-19T01:15:06;4.63;;;1.25;;
22449;SDS011;11392;57.390;-2.468;2023-01-19T01:17:34;4.65;;;0.80;;
22449;SDS011;11392;57.390;-2.468;2023-01-19T01:20:02;2.30;;;1.27;;
22449;SDS011;11392;57.390;-2.468;2023-01-19T01:22:30;1.95;;;1.02;;
22449;SDS011;11392;57.390;-2.468;2023-01-19T01:24:57;2.20;;;0.70;;
22449;SDS011;11392;57.390;-2.468;2023-01-19T01:27:24;1.38;;;0.88;;
22449;SDS011;11392;57.390;-2.468;2023-01-19T01:29:51;1.65;;;1.00;;
22449;SDS011;11392;57.390;-2.468;2023-01-19T01:32:18;1.38;;;0.80;;
22449;SDS011;11392;57.390;-2.468;2023-01-19T01:34:44;2.05;;;0.80;;
22449;SDS011;11392;57.390;-2.468;2023-01-19T01:37:12;1.08;;;0.68;;
22449;SDS011;11392;57.390;-2.468;2023-01-19T01:39:39;1.45;;;0.50;;
22449;SDS011;11392;57.390;-2.468;2023-01-19T01:42:16;2.15;;;0.80;;
22449;SDS011;11392;57.390;-2.468;2023-01-19T01:44:48;3.47;;;0.63;;
22449;SDS011;11392;57.390;-2.468;2023-01-19T01:50:07;1.27;;;0.40;;
22449;SDS011;11392;57.390;-2.468;2023-01-19T01:52:39;2.17;;;0.57;;
22449;SDS011;11392;57.390;-2.468;2023-01-19T01:55:33;1.70;;;0.60;;
22449;SDS011;11392;57.390;-2.468;2023-01-19T01:58:04;1.92;;;0.50;;
22449;SDS011;11392;57.390;-2.468;2023-01-19T02:00:34;0.43;;;0.40;;
22449;SDS011;11392;57.390;-2.468;2023-01-19T02:03:21;0.65;;;0.60;;
22449;SDS011;11392;57.390;-2.468;2023-01-19T02:05:49;3.15;;;0.57;;
22449;SDS011;11392;57.390;-2.468;2023-01-19T02:08:19;1.85;;;0.70;;
22449;SDS011;11392;57.390;-2.468;2023-01-19T02:11:19;1.77;;;0.90;;
22449;SDS011;11392;57.390;-2.468;2023-01-19T02:14:05;1.05;;;0.70;;
22449;SDS011;11392;57.390;-2.468;2023-01-19T02:16:32;0.50;;;0.50;;
22449;SDS011;11392;57.390;-2.468;2023-01-19T02:19:02;0.80;;;0.50;;
22449;SDS011;11392;57.390;-2.468;2023-01-19T02:21:37;3.75;;;0.70;;
22449;SDS011;11392;57.390;-2.468;2023-01-19T02:24:12;1.83;;;0.40;;
22449;SDS011;11392;57.390;-2.468;2023-01-19T02:26:40;0.30;;;0.30;;
22449;SDS011;11392;57.390;-2.468;2023-01-19T02:29:11;1.55;;;0.45;;
22449;SDS011;11392;57.390;-2.468;2023-01-19T02:31:41;2.33;;;0.70;;
22449;SDS011;11392;57.390;-2.468;2023-01-19T02:34:09;0.30;;;0.30;;
22449;SDS011;11392;57.390;-2.468;2023-01-19T02:39:07;0.63;;;0.50;;
22449;SDS011;11392;57.390;-2.468;2023-01-19T02:41:40;1.48;;;0.50;;
22449;SDS011;11392;57.390;-2.468;2023-01-19T02:44:11;1.60;;;0.52;;
22449;SDS011;11392;57.390;-2.468;2023-01-19T02:46:39;0.47;;;0.43;;
22449;SDS011;11392;57.390;-2.468;2023-01-19T02:49:07;1.80;;;0.60;;
22449;SDS011;11392;57.390;-2.468;2023-01-19T02:51:34;0.95;;;0.90;;
22449;SDS011;11392;57.390;-2.468;2023-01-19T02:59:41;2.28;;;0.50;;
22449;SDS011;11392;57.390;-2.468;2023-01-19T03:07:41;1.30;;;0.60;;
22449;SDS011;11392;57.390;-2.468;2023-01-19T03:10:35;2.00;;;0.90;;
22449;SDS011;11392;57.390;-2.468;2023-01-19T03:13:15;0.60;;;0.60;;
22449;SDS011;11392;57.390;-2.468;2023-01-19T03:15:51;1.33;;;0.57;;
22449;SDS011;11392;57.390;-2.468;2023-01-19T03:18:24;1.45;;;0.90;;
22449;SDS011;11392;57.390;-2.468;2023-01-19T03:20:55;1.75;;;0.50;;
22449;SDS011;11392;57.390;-2.468;2023-01-19T03:23:26;0.57;;;0.40;;
22449;SDS011;11392;57.390;-2.468;2023-01-19T03:25:57;1.13;;;0.60;;
22449;SDS011;11392;57.390;-2.468;2023-01-19T03:28:27;1.00;;;0.50;;
22449;SDS011;11392;57.390;-2.468;2023-01-19T03:30:58;2.33;;;0.82;;
22449;SDS011;11392;57.390;-2.468;2023-01-19T03:33:36;0.60;;;0.50;;
22449;SDS011;11392;57.390;-2.468;2023-01-19T03:36:07;1.02;;;0.60;;
22449;SDS011;11392;57.390;-2.468;2023-01-19T03:38:40;0.82;;;0.50;;
22449;SDS011;11392;57.390;-2.468;2023-01-19T03:41:10;0.40;;;0.40;;
22449;SDS011;11392;57.390;-2.468;2023-01-19T03:43:42;0.57;;;0.40;;
22449;SDS011;11392;57.390;-2.468;2023-01-19T03:46:10;0.40;;;0.40;;
22449;SDS011;11392;57.390;-2.468;2023-01-19T03:48:38;1.10;;;0.40;;
22449;SDS011;11392;57.390;-2.468;2023-01-19T03:51:05;3.65;;;0.60;;
22449;SDS011;11392;57.390;-2.468;2023-01-19T03:53:34;0.93;;;0.52;;
22449;SDS011;11392;57.390;-2.468;2023-01-19T03:56:02;2.35;;;0.55;;
22449;SDS011;11392;57.390;-2.468;2023-01-19T03:58:29;0.60;;;0.40;;
22449;SDS011;11392;57.390;-2.468;2023-01-19T04:00:56;0.98;;;0.40;;
22449;SDS011;11392;57.390;-2.468;2023-01-19T04:03:23;1.80;;;0.43;;
22449;SDS011;11392;57.390;-2.468;2023-01-19T04:05:50;0.82;;;0.82;;
22449;SDS011;11392;57.390;-2.468;2023-01-19T04:08:17;0.40;;;0.40;;
22449;SDS011;11392;57.390;-2.468;2023-01-19T04:10:44;2.15;;;0.63;;
22449;SDS011;11392;57.390;-2.468;2023-01-19T04:13:11;2.17;;;0.60;;
22449;SDS011;11392;57.390;-2.468;2023-01-19T04:15:38;1.55;;;0.65;;
22449;SDS011;11392;57.390;-2.468;2023-01-19T04:18:05;2.13;;;0.57;;
22449;SDS011;11392;57.390;-2.468;2023-01-19T04:20:32;1.75;;;0.50;;
22449;SDS011;11392;57.390;-2.468;2023-01-19T04:22:59;0.82;;;0.40;;
22449;SDS011;11392;57.390;-2.468;2023-01-19T04:25:27;1.42;;;0.43;;
22449;SDS011;11392;57.390;-2.468;2023-01-19T04:27:54;0.68;;;0.50;;
22449;SDS011;11392;57.390;-2.468;2023-01-19T04:30:23;0.40;;;0.40;;
22449;SDS011;11392;57.390;-2.468;2023-01-19T04:32:50;3.15;;;0.55;;
22449;SDS011;11392;57.390;-2.468;2023-01-19T04:35:18;0.70;;;0.50;;
22449;SDS011;11392;57.390;-2.468;2023-01-19T04:37:45;0.40;;;0.40;;
22449;SDS011;11392;57.390;-2.468;2023-01-19T04:40:12;1.77;;;0.50;;
22449;SDS011;11392;57.390;-2.468;2023-01-19T04:42:42;2.33;;;0.40;;
22449;SDS011;11392;57.390;-2.468;2023-01-19T04:45:11;0.50;;;0.40;;
22449;SDS011;11392;57.390;-2.468;2023-01-19T04:47:39;1.30;;;0.68;;
22449;SDS011;11392;57.390;-2.468;2023-01-19T04:50:08;0.73;;;0.43;;
22449;SDS011;11392;57.390;-2.468;2023-01-19T04:52:36;0.30;;;0.30;;
22449;SDS011;11392;57.390;-2.468;2023-01-19T04:55:04;0.30;;;0.30;;
22449;SDS011;11392;57.390;-2.468;2023-01-19T04:57:32;1.45;;;0.40;;
22449;SDS011;11392;57.390;-2.468;2023-01-19T04:59:59;0.63;;;0.50;;
22449;SDS011;11392;57.390;-2.468;2023-01-19T05:02:26;0.50;;;0.50;;
22449;SDS011;11392;57.390;-2.468;2023-01-19T05:04:53;0.98;;;0.50;;
22449;SDS011;11392;57.390;-2.468;2023-01-19T05:07:20;0.75;;;0.47;;
22449;SDS011;11392;57.390;-2.468;2023-01-19T05:09:47;0.73;;;0.47;;
22449;SDS011;11392;57.390;-2.468;2023-01-19T05:12:14;0.32;;;0.30;;
22449;SDS011;11392;57.390;-2.468;2023-01-19T05:14:41;0.52;;;0.30;;
22449;SDS011;11392;57.390;-2.468;2023-01-19T05:17:09;0.68;;;0.40;;
22449;SDS011;11392;57.390;-2.468;2023-01-19T05:19:36;0.70;;;0.40;;
22449;SDS011;11392;57.390;-2.468;2023-01-19T05:22:03;0.82;;;0.50;;
22449;SDS011;11392;57.390;-2.468;2023-01-19T05:24:31;2.97;;;0.43;;
22449;SDS011;11392;57.390;-2.468;2023-01-19T05:26:58;0.40;;;0.40;;
22449;SDS011;11392;57.390;-2.468;2023-01-19T05:29:25;2.38;;;0.40;;
22449;SDS011;11392;57.390;-2.468;2023-01-19T05:31:52;0.80;;;0.30;;
22449;SDS011;11392;57.390;-2.468;2023-01-19T05:34:19;0.82;;;0.50;;
22449;SDS011;11392;57.390;-2.468;2023-01-19T05:36:46;0.68;;;0.40;;
22449;SDS011;11392;57.390;-2.468;2023-01-19T05:39:13;0.30;;;0.30;;
22449;SDS011;11392;57.390;-2.468;2023-01-19T05:41:40;0.55;;;0.38;;
22449;SDS011;11392;57.390;-2.468;2023-01-19T05:44:08;1.30;;;0.40;;
22449;SDS011;11392;57.390;-2.468;2023-01-19T05:46:36;1.45;;;0.30;;
22449;SDS011;11392;57.390;-2.468;2023-01-19T05:49:03;1.02;;;0.40;;
22449;SDS011;11392;57.390;-2.468;2023-01-19T05:51:33;2.33;;;0.50;;
22449;SDS011;11392;57.390;-2.468;2023-01-19T05:54:03;1.10;;;0.45;;
22449;SDS011;11392;57.390;-2.468;2023-01-19T05:56:31;0.70;;;0.40;;
22449;SDS011;11392;57.390;-2.468;2023-01-19T05:58:59;0.30;;;0.30;;
22449;SDS011;11392;57.390;-2.468;2023-01-19T06:01:26;0.45;;;0.45;;
22449;SDS011;11392;57.390;-2.468;2023-01-19T06:03:53;0.40;;;0.40;;
22449;SDS011;11392;57.390;-2.468;2023-01-19T06:06:20;0.52;;;0.40;;
22449;SDS011;11392;57.390;-2.468;2023-01-19T06:08:47;1.88;;;0.40;;
22449;SDS011;11392;57.390;-2.468;2023-01-19T06:11:14;1.05;;;0.50;;
22449;SDS011;11392;57.390;-2.468;2023-01-19T06:13:41;1.65;;;0.30;;
22449;SDS011;11392;57.390;-2.468;2023-01-19T06:16:08;0.88;;;0.30;;
22449;SDS011;11392;57.390;-2.468;2023-01-19T06:18:37;0.47;;;0.47;;
22449;SDS011;11392;57.390;-2.468;2023-01-19T06:21:04;0.40;;;0.40;;
22449;SDS011;11392;57.390;-2.468;2023-01-19T06:23:33;0.43;;;0.40;;
22449;SDS011;11392;57.390;-2.468;2023-01-19T06:26:01;0.45;;;0.45;;
22449;SDS011;11392;57.390;-2.468;2023-01-19T06:28:29;1.17;;;0.40;;
22449;SDS011;11392;57.390;-2.468;2023-01-19T06:30:56;0.90;;;0.50;;
22449;SDS011;11392;57.390;-2.468;2023-01-19T06:33:23;0.52;;;0.32;;
22449;SDS011;11392;57.390;-2.468;2023-01-19T06:35:50;0.30;;;0.30;;
22449;SDS011;11392;57.390;-2.468;2023-01-19T06:38:18;1.50;;;0.98;;
22449;SDS011;11392;57.390;-2.468;2023-01-19T06:40:50;1.05;;;0.40;;
22449;SDS011;11392;57.390;-2.468;2023-01-19T06:43:20;0.40;;;0.40;;
22449;SDS011;11392;57.390;-2.468;2023-01-19T06:45:47;1.20;;;0.30;;
22449;SDS011;11392;57.390;-2.468;2023-01-19T06:48:15;1.15;;;0.40;;
22449;SDS011;11392;57.390;-2.468;2023-01-19T06:50:46;0.43;;;0.35;;
22449;SDS011;11392;57.390;-2.468;2023-01-19T06:53:14;0.40;;;0.40;;
22449;SDS011;11392;57.390;-2.468;2023-01-19T06:55:42;0.85;;;0.45;;
22449;SDS011;11392;57.390;-2.468;2023-01-19T06:58:09;0.60;;;0.35;;
22449;SDS011;11392;57.390;-2.468;2023-01-19T07:00:37;0.70;;;0.45;;
22449;SDS011;11392;57.390;-2.468;2023-01-19T07:03:05;0.68;;;0.50;;
22449;SDS011;11392;57.390;-2.468;2023-01-19T07:05:33;1.00;;;0.40;;
22449;SDS011;11392;57.390;-2.468;2023-01-19T07:08:01;0.57;;;0.40;;
22449;SDS011;11392;57.390;-2.468;2023-01-19T07:10:29;0.40;;;0.40;;
22449;SDS011;11392;57.390;-2.468;2023-01-19T07:13:16;0.40;;;0.40;;
22449;SDS011;11392;57.390;-2.468;2023-01-19T07:15:43;0.77;;;0.40;;
22449;SDS011;11392;57.390;-2.468;2023-01-19T07:18:10;2.25;;;0.57;;
22449;SDS011;11392;57.390;-2.468;2023-01-19T07:20:38;0.35;;;0.35;;
22449;SDS011;11392;57.390;-2.468;2023-01-19T07:23:05;0.40;;;0.40;;
22449;SDS011;11392;57.390;-2.468;2023-01-19T07:25:31;0.32;;;0.32;;
22449;SDS011;11392;57.390;-2.468;2023-01-19T07:27:58;0.82;;;0.30;;
22449;SDS011;11392;57.390;-2.468;2023-01-19T07:30:25;0.57;;;0.57;;
22449;SDS011;11392;57.390;-2.468;2023-01-19T07:32:53;1.13;;;0.40;;
22449;SDS011;11392;57.390;-2.468;2023-01-19T07:35:23;1.38;;;0.50;;
22449;SDS011;11392;57.390;-2.468;2023-01-19T07:37:50;0.38;;;0.38;;
22449;SDS011;11392;57.390;-2.468;2023-01-19T07:40:17;0.50;;;0.43;;
22449;SDS011;11392;57.390;-2.468;2023-01-19T07:42:48;0.93;;;0.43;;
22449;SDS011;11392;57.390;-2.468;2023-01-19T07:45:15;0.70;;;0.30;;
22449;SDS011;11392;57.390;-2.468;2023-01-19T07:47:43;0.47;;;0.40;;
22449;SDS011;11392;57.390;-2.468;2023-01-19T07:50:11;1.17;;;0.43;;
22449;SDS011;11392;57.390;-2.468;2023-01-19T07:52:39;0.60;;;0.60;;
22449;SDS011;11392;57.390;-2.468;2023-01-19T07:55:06;0.40;;;0.40;;
22449;SDS011;11392;57.390;-2.468;2023-01-19T07:57:34;0.30;;;0.30;;
22449;SDS011;11392;57.390;-2.468;2023-01-19T08:00:02;0.90;;;0.40;;
22449;SDS011;11392;57.390;-2.468;2023-01-19T08:02:30;1.30;;;0.45;;
22449;SDS011;11392;57.390;-2.468;2023-01-19T08:04:59;0.30;;;0.30;;
22449;SDS011;11392;57.390;-2.468;2023-01-19T08:07:26;2.60;;;0.77;;
22449;SDS011;11392;57.390;-2.468;2023-01-19T08:09:56;0.63;;;0.30;;
22449;SDS011;11392;57.390;-2.468;2023-01-19T08:12:25;1.88;;;0.50;;
22449;SDS011;11392;57.390;-2.468;2023-01-19T08:14:52;1.65;;;0.68;;
22449;SDS011;11392;57.390;-2.468;2023-01-19T08:17:20;0.52;;;0.52;;
22449;SDS011;11392;57.390;-2.468;2023-01-19T08:19:47;1.10;;;0.60;;
22449;SDS011;11392;57.390;-2.468;2023-01-19T08:22:14;0.47;;;0.43;;
22449;SDS011;11392;57.390;-2.468;2023-01-19T08:24:41;0.60;;;0.50;;
22449;SDS011;11392;57.390;-2.468;2023-01-19T08:27:08;0.73;;;0.30;;
22449;SDS011;11392;57.390;-2.468;2023-01-19T08:29:38;3.53;;;0.52;;
22449;SDS011;11392;57.390;-2.468;2023-01-19T08:32:05;2.33;;;0.70;;
22449;SDS011;11392;57.390;-2.468;2023-01-19T08:34:32;0.40;;;0.40;;
22449;SDS011;11392;57.390;-2.468;2023-01-19T08:37:00;0.75;;;0.47;;
22449;SDS011;11392;57.390;-2.468;2023-01-19T08:39:27;0.77;;;0.57;;
22449;SDS011;11392;57.390;-2.468;2023-01-19T08:41:54;0.45;;;0.45;;
22449;SDS011;11392;57.390;-2.468;2023-01-19T08:44:21;1.75;;;0.40;;
22449;SDS011;11392;57.390;-2.468;2023-01-19T08:46:48;1.27;;;0.60;;
22449;SDS011;11392;57.390;-2.468;2023-01-19T08:49:16;1.70;;;0.40;;
22449;SDS011;11392;57.390;-2.468;2023-01-19T08:51:43;0.95;;;0.60;;
22449;SDS011;11392;57.390;-2.468;2023-01-19T08:54:12;2.03;;;0.77;;
22449;SDS011;11392;57.390;-2.468;2023-01-19T08:56:40;3.88;;;1.48;;
22449;SDS011;11392;57.390;-2.468;2023-01-19T08:59:07;2.15;;;0.80;;
22449;SDS011;11392;57.390;-2.468;2023-01-19T09:01:38;3.20;;;0.60;;
22449;SDS011;11392;57.390;-2.468;2023-01-19T09:37:22;1.92;;;0.60;;
22449;SDS011;11392;57.390;-2.468;2023-01-19T09:47:48;0.98;;;0.30;;
22449;SDS011;11392;57.390;-2.468;2023-01-19T09:50:23;0.70;;;0.47;;
22449;SDS011;11392;57.390;-2.468;2023-01-19T09:55:50;0.82;;;0.40;;
22449;SDS011;11392;57.390;-2.468;2023-01-19T09:58:17;0.73;;;0.40;;
22449;SDS011;11392;57.390;-2.468;2023-01-19T10:00:54;1.50;;;0.57;;
22449;SDS011;11392;57.390;-2.468;2023-01-19T10:03:33;1.35;;;0.50;;
22449;SDS011;11392;57.390;-2.468;2023-01-19T10:06:07;0.30;;;0.30;;
22449;SDS011;11392;57.390;-2.468;2023-01-19T10:11:41;0.90;;;0.30;;
22449;SDS011;11392;57.390;-2.468;2023-01-19T10:14:20;0.75;;;0.28;;
22449;SDS011;11392;57.390;-2.468;2023-01-19T10:17:25;0.57;;;0.30;;
22449;SDS011;11392;57.390;-2.468;2023-01-19T10:20:02;0.15;;;0.15;;
22449;SDS011;11392;57.390;-2.468;2023-01-19T10:22:31;1.40;;;0.20;;
22449;SDS011;11392;57.390;-2.468;2023-01-19T10:24:59;0.28;;;0.28;;
22449;SDS011;11392;57.390;-2.468;2023-01-19T10:27:31;0.43;;;0.22;;
22449;SDS011;11392;57.390;-2.468;2023-01-19T10:30:01;1.48;;;0.10;;
22449;SDS011;11392;57.390;-2.468;2023-01-19T10:32:32;0.13;;;0.13;;
22449;SDS011;11392;57.390;-2.468;2023-01-19T10:35:11;0.20;;;0.20;;
22449;SDS011;11392;57.390;-2.468;2023-01-19T10:37:47;0.10;;;0.10;;
22449;SDS011;11392;57.390;-2.468;2023-01-19T10:40:32;0.20;;;0.20;;
22449;SDS011;11392;57.390;-2.468;2023-01-19T10:51:50;0.10;;;0.10;;
22449;SDS011;11392;57.390;-2.468;2023-01-19T10:54:19;0.10;;;0.10;;
22449;SDS011;11392;57.390;-2.468;2023-01-19T10:56:58;0.10;;;0.10;;
22449;SDS011;11392;57.390;-2.468;2023-01-19T10:59:30;0.10;;;0.10;;
22449;SDS011;11392;57.390;-2.468;2023-01-19T11:04:54;1.55;;;0.20;;
22449;SDS011;11392;57.390;-2.468;2023-01-19T11:07:27;0.17;;;0.17;;
22449;SDS011;11392;57.390;-2.468;2023-01-19T11:15:40;1.05;;;0.20;;
22449;SDS011;11392;57.390;-2.468;2023-01-19T11:18:17;0.43;;;0.20;;
22449;SDS011;11392;57.390;-2.468;2023-01-19T11:20:58;1.15;;;0.20;;
22449;SDS011;11392;57.390;-2.468;2023-01-19T11:23:34;0.22;;;0.22;;
22449;SDS011;11392;57.390;-2.468;2023-01-19T11:26:11;0.20;;;0.20;;
22449;SDS011;11392;57.390;-2.468;2023-01-19T11:28:47;1.13;;;0.25;;
22449;SDS011;11392;57.390;-2.468;2023-01-19T11:31:17;1.02;;;0.30;;
22449;SDS011;11392;57.390;-2.468;2023-01-19T11:34:03;0.55;;;0.30;;
22449;SDS011;11392;57.390;-2.468;2023-01-19T11:36:34;0.60;;;0.32;;
22449;SDS011;11392;57.390;-2.468;2023-01-19T11:41:37;2.53;;;0.40;;
22449;SDS011;11392;57.390;-2.468;2023-01-19T11:46:56;0.20;;;0.20;;
22449;SDS011;11392;57.390;-2.468;2023-01-19T11:52:24;1.20;;;0.35;;
22449;SDS011;11392;57.390;-2.468;2023-01-19T11:55:42;1.80;;;0.30;;
22449;SDS011;11392;57.390;-2.468;2023-01-19T11:57:47;2.55;;;0.93;;
22449;SDS011;11392;57.390;-2.468;2023-01-19T12:00:24;1.48;;;0.50;;
22449;SDS011;11392;57.390;-2.468;2023-01-19T12:02:56;0.52;;;0.38;;
22449;SDS011;11392;57.390;-2.468;2023-01-19T12:05:30;0.20;;;0.20;;
22449;SDS011;11392;57.390;-2.468;2023-01-19T12:07:59;2.30;;;0.35;;
22449;SDS011;11392;57.390;-2.468;2023-01-19T12:10:33;2.67;;;0.50;;
22449;SDS011;11392;57.390;-2.468;2023-01-19T12:13:03;1.25;;;0.38;;
22449;SDS011;11392;57.390;-2.468;2023-01-19T12:15:32;2.30;;;0.52;;
22449;SDS011;11392;57.390;-2.468;2023-01-19T12:18:04;0.57;;;0.47;;
22449;SDS011;11392;57.390;-2.468;2023-01-19T12:20:39;1.33;;;0.30;;
22449;SDS011;11392;57.390;-2.468;2023-01-19T12:23:26;0.43;;;0.40;;
22449;SDS011;11392;57.390;-2.468;2023-01-19T12:29:03;1.75;;;0.57;;
22449;SDS011;11392;57.390;-2.468;2023-01-19T12:31:39;1.77;;;0.50;;
22449;SDS011;11392;57.390;-2.468;2023-01-19T12:40:16;0.50;;;0.50;;
22449;SDS011;11392;57.390;-2.468;2023-01-19T12:45:24;2.15;;;0.40;;
22449;SDS011;11392;57.390;-2.468;2023-01-19T12:47:58;0.50;;;0.40;;
22449;SDS011;11392;57.390;-2.468;2023-01-19T12:50:28;1.85;;;0.43;;
22449;SDS011;11392;57.390;-2.468;2023-01-19T12:53:03;0.73;;;0.70;;
22449;SDS011;11392;57.390;-2.468;2023-01-19T12:55:41;0.50;;;0.50;;
22449;SDS011;11392;57.390;-2.468;2023-01-19T12:58:15;0.77;;;0.55;;
22449;SDS011;11392;57.390;-2.468;2023-01-19T13:00:47;0.40;;;0.40;;
22449;SDS011;11392;57.390;-2.468;2023-01-19T13:05:51;0.65;;;0.45;;
22449;SDS011;11392;57.390;-2.468;2023-01-19T13:08:26;2.40;;;0.50;;
22449;SDS011;11392;57.390;-2.468;2023-01-19T13:59:59;2.17;;;0.70;;
22449;SDS011;11392;57.390;-2.468;2023-01-19T14:02:29;0.82;;;0.50;;
22449;SDS011;11392;57.390;-2.468;2023-01-19T14:04:56;4.03;;;0.98;;
22449;SDS011;11392;57.390;-2.468;2023-01-19T14:07:23;2.20;;;0.70;;
22449;SDS011;11392;57.390;-2.468;2023-01-19T14:10:06;1.70;;;0.63;;
22449;SDS011;11392;57.390;-2.468;2023-01-19T14:12:39;1.65;;;0.60;;
22449;SDS011;11392;57.390;-2.468;2023-01-19T14:15:23;1.05;;;0.52;;
22449;SDS011;11392;57.390;-2.468;2023-01-19T14:18:07;1.80;;;0.80;;
22449;SDS011;11392;57.390;-2.468;2023-01-19T14:20:36;2.92;;;0.77;;
22449;SDS011;11392;57.390;-2.468;2023-01-19T14:23:04;0.43;;;0.43;;
22449;SDS011;11392;57.390;-2.468;2023-01-19T14:25:33;1.73;;;0.50;;
22449;SDS011;11392;57.390;-2.468;2023-01-19T14:30:58;1.02;;;0.68;;
22449;SDS011;11392;57.390;-2.468;2023-01-19T14:33:43;1.00;;;0.50;;
22449;SDS011;11392;57.390;-2.468;2023-01-19T14:38:45;2.67;;;1.08;;
22449;SDS011;11392;57.390;-2.468;2023-01-19T14:41:20;3.33;;;1.13;;
22449;SDS011;11392;57.390;-2.468;2023-01-19T14:43:50;2.60;;;1.05;;
22449;SDS011;11392;57.390;-2.468;2023-01-19T14:46:17;3.88;;;0.80;;
22449;SDS011;11392;57.390;-2.468;2023-01-19T14:48:46;3.30;;;1.00;;
22449;SDS011;11392;57.390;-2.468;2023-01-19T14:51:17;3.22;;;0.93;;
22449;SDS011;11392;57.390;-2.468;2023-01-19T14:53:49;1.10;;;0.90;;
22449;SDS011;11392;57.390;-2.468;2023-01-19T14:56:29;1.65;;;0.80;;
22449;SDS011;11392;57.390;-2.468;2023-01-19T14:58:58;3.53;;;1.02;;
22449;SDS011;11392;57.390;-2.468;2023-01-19T15:01:28;1.67;;;0.90;;
22449;SDS011;11392;57.390;-2.468;2023-01-19T15:03:56;3.35;;;1.02;;
22449;SDS011;11392;57.390;-2.468;2023-01-19T15:06:24;2.60;;;1.10;;
22449;SDS011;11392;57.390;-2.468;2023-01-19T15:08:51;3.15;;;0.95;;
22449;SDS011;11392;57.390;-2.468;2023-01-19T15:11:26;4.45;;;1.20;;
22449;SDS011;11392;57.390;-2.468;2023-01-19T15:13:57;5.90;;;1.20;;
22449;SDS011;11392;57.390;-2.468;2023-01-19T15:16:25;3.58;;;1.30;;
22449;SDS011;11392;57.390;-2.468;2023-01-19T15:18:54;4.47;;;1.65;;
22449;SDS011;11392;57.390;-2.468;2023-01-19T15:21:22;5.35;;;1.10;;
22449;SDS011;11392;57.390;-2.468;2023-01-19T15:23:51;2.78;;;0.95;;
22449;SDS011;11392;57.390;-2.468;2023-01-19T15:26:23;4.50;;;1.00;;
22449;SDS011;11392;57.390;-2.468;2023-01-19T15:28:51;2.95;;;1.05;;
22449;SDS011;11392;57.390;-2.468;2023-01-19T15:31:22;2.83;;;1.20;;
22449;SDS011;11392;57.390;-2.468;2023-01-19T15:33:51;4.15;;;1.10;;
22449;SDS011;11392;57.390;-2.468;2023-01-19T15:36:21;6.50;;;1.25;;
22449;SDS011;11392;57.390;-2.468;2023-01-19T15:38:49;4.40;;;1.20;;
22449;SDS011;11392;57.390;-2.468;2023-01-19T15:41:21;5.22;;;1.38;;
22449;SDS011;11392;57.390;-2.468;2023-01-19T15:43:51;7.47;;;1.60;;
22449;SDS011;11392;57.390;-2.468;2023-01-19T15:46:18;10.88;;;1.80;;
22449;SDS011;11392;57.390;-2.468;2023-01-19T15:48:49;5.85;;;1.60;;
22449;SDS011;11392;57.390;-2.468;2023-01-19T15:51:17;4.40;;;1.70;;
22449;SDS011;11392;57.390;-2.468;2023-01-19T15:53:46;5.43;;;1.13;;
22449;SDS011;11392;57.390;-2.468;2023-01-19T15:56:14;3.75;;;1.42;;
22449;SDS011;11392;57.390;-2.468;2023-01-19T15:58:43;3.38;;;1.25;;
22449;SDS011;11392;57.390;-2.468;2023-01-19T16:01:12;4.75;;;1.60;;
22449;SDS011;11392;57.390;-2.468;2023-01-19T16:03:43;4.35;;;1.15;;
22449;SDS011;11392;57.390;-2.468;2023-01-19T16:06:11;8.15;;;1.20;;
22449;SDS011;11392;57.390;-2.468;2023-01-19T16:08:38;6.00;;;1.50;;
22449;SDS011;11392;57.390;-2.468;2023-01-19T16:11:06;5.15;;;1.23;;
22449;SDS011;11392;57.390;-2.468;2023-01-19T16:13:35;4.68;;;1.20;;
22449;SDS011;11392;57.390;-2.468;2023-01-19T16:16:13;6.82;;;1.73;;
22449;SDS011;11392;57.390;-2.468;2023-01-19T16:18:43;2.78;;;1.23;;
22449;SDS011;11392;57.390;-2.468;2023-01-19T16:21:10;2.50;;;1.20;;
22449;SDS011;11392;57.390;-2.468;2023-01-19T16:23:38;5.13;;;1.00;;
22449;SDS011;11392;57.390;-2.468;2023-01-19T16:26:06;4.85;;;1.10;;
22449;SDS011;11392;57.390;-2.468;2023-01-19T16:28:47;3.85;;;1.10;;
22449;SDS011;11392;57.390;-2.468;2023-01-19T16:31:14;4.45;;;1.77;;
22449;SDS011;11392;57.390;-2.468;2023-01-19T16:33:43;7.25;;;1.42;;
22449;SDS011;11392;57.390;-2.468;2023-01-19T16:36:21;5.43;;;1.15;;
22449;SDS011;11392;57.390;-2.468;2023-01-19T16:38:50;5.32;;;1.17;;
22449;SDS011;11392;57.390;-2.468;2023-01-19T16:41:18;3.97;;;1.27;;
22449;SDS011;11392;57.390;-2.468;2023-01-19T16:43:49;4.63;;;1.13;;
22449;SDS011;11392;57.390;-2.468;2023-01-19T16:46:24;9.05;;;1.42;;
22449;SDS011;11392;57.390;-2.468;2023-01-19T16:49:05;3.42;;;1.00;;
22449;SDS011;11392;57.390;-2.468;2023-01-19T16:51:40;4.93;;;1.20;;
22449;SDS011;11392;57.390;-2.468;2023-01-19T16:54:11;2.50;;;1.00;;
22449;SDS011;11392;57.390;-2.468;2023-01-19T16:56:39;3.70;;;1.10;;
22449;SDS011;11392;57.390;-2.468;2023-01-19T16:59:11;4.78;;;1.30;;
22449;SDS011;11392;57.390;-2.468;2023-01-19T17:01:39;5.28;;;1.10;;
22449;SDS011;11392;57.390;-2.468;2023-01-19T17:04:07;3.00;;;1.25;;
22449;SDS011;11392;57.390;-2.468;2023-01-19T17:06:34;3.67;;;1.25;;
22449;SDS011;11392;57.390;-2.468;2023-01-19T17:09:01;5.70;;;1.55;;
22449;SDS011;11392;57.390;-2.468;2023-01-19T17:11:29;4.28;;;1.10;;
22449;SDS011;11392;57.390;-2.468;2023-01-19T17:13:58;7.93;;;1.50;;
22449;SDS011;11392;57.390;-2.468;2023-01-19T17:16:27;5.90;;;1.73;;
22449;SDS011;11392;57.390;-2.468;2023-01-19T17:18:56;3.97;;;1.05;;
22449;SDS011;11392;57.390;-2.468;2023-01-19T17:21:25;3.75;;;1.55;;
22449;SDS011;11392;57.390;-2.468;2023-01-19T17:23:53;3.08;;;1.27;;
22449;SDS011;11392;57.390;-2.468;2023-01-19T17:26:21;8.73;;;3.30;;
22449;SDS011;11392;57.390;-2.468;2023-01-19T17:28:50;6.60;;;1.30;;
22449;SDS011;11392;57.390;-2.468;2023-01-19T17:31:19;7.38;;;1.67;;